Time;durP1;ratioP1;P1;durP2;ratioP2;P2;SDS_P1;SDS_P2;PMS_P1;PMS_P2;Temp;Humidity;BMP_temperature;BMP_pressure;BME280_temperature;BME280_humidity;BME280_pressure;Samples;Min_cycle;Max_cycle;Signal;HPM_P1;HPM_P2
2023/01/12 00:01:32;;;;;;;8.75;1.38;;;7.60;99.90;;;5.97;100.00;100111.38;4995498;28;20096;-75
2023/01/12 00:03:58;;;;;;;7.43;1.58;;;7.50;99.90;;;5.93;100.00;100114.69;5011097;28;20038;-74
2023/01/12 00:06:24;;;;;;;6.45;1.40;;;7.50;99.90;;;5.96;100.00;100106.16;4996436;28;20363;-76
2023/01/12 00:08:52;;;;;;;7.45;1.40;;;7.50;99.90;;;5.95;100.00;100096.38;5010687;28;20459;-75
2023/01/12 00:11:19;;;;;;;11.65;1.88;;;7.50;99.90;;;6.00;100.00;100099.31;4996633;28;20057;-76
2023/01/12 00:13:44;;;;;;;3.60;1.17;;;7.50;99.90;;;5.97;100.00;100105.97;5008426;28;20069;-76
2023/01/12 00:16:42;;;;;;;6.55;1.45;;;7.50;99.90;;;6.04;100.00;100116.84;4996070;28;20038;-76
2023/01/12 00:19:16;;;;;;;9.93;1.48;;;7.60;99.90;;;6.08;100.00;100085.63;5011204;28;20501;-76
2023/01/12 00:24:29;;;;;;;9.45;1.70;;;7.70;99.90;;;6.17;100.00;100089.00;4996188;28;20046;-76
2023/01/12 00:26:57;;;;;;;8.90;1.40;;;7.70;99.90;;;6.24;100.00;100106.13;4995551;28;20069;-76
2023/01/12 00:29:25;;;;;;;4.57;1.30;;;7.80;99.90;;;6.29;100.00;100090.09;5010018;28;20065;-76
2023/01/12 00:31:53;;;;;;;8.55;1.33;;;7.80;99.90;;;6.28;100.00;100103.84;5008322;28;20581;-77
2023/01/12 00:34:19;;;;;;;8.10;1.33;;;7.80;99.90;;;6.29;100.00;100087.41;4995546;28;20088;-76
2023/01/12 00:36:45;;;;;;;4.43;1.40;;;7.80;99.90;;;6.30;100.00;100099.06;4996310;28;20037;-76
2023/01/12 00:39:13;;;;;;;5.40;1.33;;;7.90;99.90;;;6.30;100.00;100090.94;4994009;28;20073;-76
2023/01/12 00:47:10;;;;;;;9.25;1.52;;;7.80;99.90;;;6.33;100.00;100082.38;4994681;28;20073;-74
2023/01/12 00:49:38;;;;;;;6.80;1.30;;;7.80;99.90;;;6.47;100.00;100081.41;4999263;28;20141;-74
2023/01/12 00:52:05;;;;;;;6.55;1.13;;;8.00;99.90;;;6.47;100.00;100130.19;4995338;28;20644;-74
2023/01/12 00:54:33;;;;;;;10.45;1.50;;;8.00;99.90;;;6.53;100.00;100104.16;4995540;28;20038;-75
2023/01/12 00:57:00;;;;;;;7.25;1.17;;;8.10;99.90;;;6.53;100.00;100119.56;5002221;28;20093;-75
2023/01/12 00:59:27;;;;;;;4.05;1.40;;;8.10;99.90;;;6.54;100.00;100070.59;5009003;28;20038;-75
2023/01/12 01:01:52;;;;;;;8.20;1.48;;;8.10;99.90;;;6.55;100.00;100096.66;4999681;28;20414;-75
2023/01/12 01:04:18;;;;;;;6.72;1.13;;;8.20;99.90;;;6.60;100.00;100083.31;5001286;28;20060;-76
2023/01/12 01:06:44;;;;;;;3.88;1.00;;;8.20;99.90;;;6.58;100.00;100081.84;5000623;28;20074;-76
2023/01/12 01:09:09;;;;;;;4.93;1.13;;;8.20;99.90;;;6.53;100.00;100095.19;5003378;28;20072;-76
2023/01/12 01:11:35;;;;;;;5.57;1.27;;;8.10;99.90;;;6.55;100.00;100085.81;4994787;28;20034;-76
2023/01/12 01:14:02;;;;;;;6.45;1.40;;;8.10;99.90;;;6.60;100.00;100083.31;4994915;28;20141;-75
2023/01/12 01:16:28;;;;;;;9.82;1.67;;;8.20;99.90;;;6.59;100.00;100083.50;4993751;28;20044;-75
2023/01/12 01:18:55;;;;;;;11.27;1.58;;;8.20;99.90;;;6.58;100.00;100074.56;4994623;28;20042;-76
2023/01/12 01:21:21;;;;;;;9.57;1.75;;;8.20;99.90;;;6.59;100.00;100075.38;4993555;28;20041;-75
2023/01/12 01:23:46;;;;;;;6.70;1.15;;;8.20;99.90;;;6.56;100.00;100073.09;4994326;28;20038;-75
2023/01/12 01:26:16;;;;;;;8.10;1.30;;;8.20;99.90;;;6.61;100.00;100086.84;4994522;28;20099;-76
2023/01/12 01:28:42;;;;;;;10.57;1.52;;;8.20;99.90;;;6.68;100.00;100066.03;4994395;28;20501;-74
2023/01/12 01:31:12;;;;;;;5.65;1.50;;;8.20;99.90;;;6.70;100.00;100077.53;4994479;28;20039;-74
2023/01/12 01:33:39;;;;;;;8.75;1.60;;;8.20;99.90;;;6.75;100.00;100074.16;5000170;28;20041;-76
2023/01/12 01:36:06;;;;;;;4.38;1.38;;;8.30;99.90;;;6.81;100.00;100077.94;4994744;28;20125;-76
2023/01/12 01:38:32;;;;;;;7.40;1.30;;;8.30;99.90;;;6.84;100.00;100082.94;4994345;28;20478;-76
2023/01/12 01:40:58;;;;;;;4.55;1.50;;;8.40;99.90;;;6.96;100.00;100084.03;4994449;28;20038;-76
2023/01/12 01:43:26;;;;;;;5.85;1.20;;;8.50;99.90;;;6.89;100.00;100061.47;4993936;28;20082;-77
2023/01/12 01:46:10;;;;;;;5.85;1.08;;;8.50;99.90;;;7.00;99.71;100079.84;4994264;28;20536;-75
2023/01/12 01:48:38;;;;;;;3.65;1.20;;;8.60;99.90;;;7.02;99.49;100060.66;4994530;28;20386;-74
2023/01/12 01:51:10;;;;;;;;;;;8.60;99.90;;;7.02;98.97;100066.91;5000229;28;20543;-75
2023/01/12 01:53:41;;;;;;;5.72;1.48;;;8.60;99.90;;;7.15;97.91;100068.81;4991354;28;19922;-75
2023/01/12 01:56:13;;;;;;;3.25;0.80;;;8.70;99.90;;;7.19;97.08;100088.22;4992750;28;20054;-75
2023/01/12 01:58:58;;;;;;;5.15;1.15;;;8.70;99.90;;;7.20;96.78;100060.88;4991597;28;20044;-75
2023/01/12 02:01:24;;;;;;;4.53;0.80;;;8.80;99.90;;;7.25;96.84;100065.69;4993813;28;20092;-75
2023/01/12 02:03:55;;;;;;;5.97;1.33;;;8.80;99.90;;;7.30;96.47;100046.06;4993303;28;20154;-75
2023/01/12 02:06:24;;;;;;;4.22;1.02;;;8.80;99.90;;;7.11;97.08;100056.69;4991980;28;20031;-75
2023/01/12 02:09:26;;;;;;;2.95;0.85;;;8.80;99.90;;;7.14;99.84;100040.00;4993991;28;20051;-74
2023/01/12 02:18:28;;;;;;;5.85;1.05;;;8.50;99.90;;;6.87;100.00;100060.84;4999631;28;20099;-75
2023/01/12 02:21:19;;;;;;;3.80;0.80;;;8.50;99.90;;;6.77;100.00;100047.72;4991448;28;20454;-75
2023/01/12 02:24:42;;;;;;;6.70;1.15;;;8.40;99.90;;;6.75;100.00;100056.03;4992651;28;20045;-75
2023/01/12 02:27:40;;;;;;;4.15;0.80;;;8.30;99.90;;;6.76;100.00;100059.56;4994250;28;20486;-75
2023/01/12 02:30:37;;;;;;;4.43;0.90;;;8.30;99.90;;;6.75;100.00;100055.19;4991656;28;20401;-75
2023/01/12 02:33:47;;;;;;;6.45;1.00;;;8.30;99.90;;;6.73;100.00;100050.00;4993766;28;20069;-75
2023/01/12 02:36:32;;;;;;;3.10;0.90;;;8.30;99.90;;;6.69;100.00;100037.91;4994083;28;20057;-75
2023/01/12 02:39:19;;;;;;;3.13;0.93;;;8.30;99.90;;;6.79;100.00;100069.19;4992982;28;20038;-75
2023/01/12 02:42:42;;;;;;;8.55;1.20;;;8.40;99.90;;;6.73;100.00;100049.16;5007486;28;20030;-75
2023/01/12 02:45:20;;;;;;;5.30;1.30;;;8.30;99.90;;;6.71;100.00;100041.22;4997776;28;20029;-75
2023/01/12 02:48:07;;;;;;;8.93;1.83;;;8.30;99.90;;;6.75;100.00;100039.78;4998142;28;20038;-75
2023/01/12 02:50:51;;;;;;;6.25;1.15;;;;;;;6.81;100.00;100023.72;4996108;28;20042;-75
2023/01/12 02:53:32;;;;;;;6.43;1.27;;;8.40;99.90;;;6.80;100.00;100022.03;4997883;28;20042;-76
2023/01/12 02:56:03;;;;;;;6.25;1.27;;;8.40;99.90;;;6.84;100.00;100015.16;5002093;28;20116;-75
2023/01/12 02:58:35;;;;;;;7.80;1.58;;;8.40;99.90;;;6.95;100.00;100008.28;4998223;28;20459;-75
2023/01/12 03:01:03;;;;;;;4.55;1.20;;;8.50;99.90;;;6.96;100.00;100008.09;4997948;28;20041;-75
2023/01/12 03:03:29;;;;;;;4.85;1.02;;;8.50;99.90;;;7.04;100.00;100045.84;4997798;28;20022;-74
2023/01/12 03:05:58;;;;;;;5.75;1.30;;;8.60;99.90;;;7.08;100.00;100012.88;4997404;28;20042;-74
2023/01/12 03:08:29;;;;;;;5.65;1.40;;;8.60;99.90;;;7.04;100.00;100001.63;5012527;28;20037;-74
2023/01/12 03:11:10;;;;;;;4.90;1.00;;;8.60;99.90;;;7.17;100.00;100004.31;4996972;28;20037;-75
2023/01/12 03:13:44;;;;;;;5.00;0.90;;;8.70;99.90;;;7.15;100.00;99992.84;5001819;28;20038;-75
2023/01/12 03:16:16;;;;;;;5.45;1.20;;;8.70;99.90;;;7.12;100.00;100005.97;4996959;28;20047;-74
2023/01/12 03:19:08;;;;;;;5.30;1.23;;;8.70;99.90;;;7.10;100.00;99999.94;4997151;28;20045;-75
2023/01/12 03:21:54;;;;;;;3.00;0.80;;;8.70;99.90;;;6.88;100.00;99982.00;5003637;28;20435;-75
2023/01/12 03:24:31;;;;;;;5.93;0.93;;;8.60;99.90;;;6.92;100.00;100009.56;5010415;28;20045;-75
2023/01/12 03:27:31;;;;;;;6.60;1.30;;;8.50;99.90;;;6.89;100.00;100009.94;5011331;28;20041;-76
2023/01/12 03:30:06;;;;;;;2.28;0.63;;;8.50;99.90;;;6.87;100.00;100012.03;5005809;28;20100;-75
2023/01/12 03:32:33;;;;;;;3.03;0.77;;;8.40;99.90;;;6.87;100.00;100014.75;5011828;28;20041;-75
2023/01/12 03:34:59;;;;;;;4.30;0.85;;;8.40;99.90;;;6.95;100.00;100009.13;5007477;28;20073;-75
2023/01/12 03:37:50;;;;;;;4.43;0.98;;;8.50;99.90;;;6.99;100.00;100004.09;4997143;28;20114;-75
2023/01/12 03:40:36;;;;;;;2.42;0.57;;;8.50;99.90;;;6.98;100.00;99987.03;5007658;28;20477;-75
2023/01/12 03:43:29;;;;;;;5.90;0.93;;;8.60;99.90;;;7.02;100.00;100004.53;4998712;28;20057;-75
2023/01/12 03:46:13;;;;;;;3.67;1.00;;;8.60;99.90;;;7.02;100.00;99998.25;4997438;28;20037;-75
2023/01/12 03:49:08;;;;;;;3.72;1.08;;;8.60;99.90;;;7.04;100.00;99990.78;5011316;28;20478;-75
2023/01/12 03:51:42;;;;;;;2.55;0.80;;;8.60;99.90;;;6.85;100.00;99970.72;4996621;28;20057;-75
2023/01/12 03:54:13;;;;;;;3.75;0.80;;;8.60;99.90;;;6.98;100.00;99997.00;4997055;28;20057;-75
2023/01/12 03:56:43;;;;;;;4.35;0.95;;;8.50;99.90;;;6.95;100.00;99990.16;4996807;28;20101;-75
2023/01/12 03:59:10;;;;;;;2.47;0.80;;;8.50;99.90;;;6.96;100.00;99982.84;4996273;28;20042;-75
2023/01/12 04:01:36;;;;;;;3.35;0.95;;;8.50;99.90;;;6.92;100.00;99977.00;5011770;28;20085;-75
2023/01/12 04:04:03;;;;;;;2.65;0.90;;;8.50;99.90;;;6.97;100.00;99979.94;5010751;28;20042;-75
2023/01/12 04:06:28;;;;;;;3.45;1.10;;;8.50;99.90;;;6.97;100.00;99971.78;4995755;28;20475;-75
2023/01/12 04:08:54;;;;;;;3.40;0.90;;;8.50;99.90;;;6.97;100.00;99973.66;4996481;28;20042;-75
2023/01/12 04:14:24;;;;;;;4.13;0.90;;;8.50;99.90;;;6.88;100.00;99998.28;4981981;28;20069;-75
2023/01/12 04:16:51;;;;;;;4.10;1.08;;;8.50;99.90;;;6.85;100.00;99963.44;4977405;28;20506;-75
2023/01/12 04:19:16;;;;;;;4.45;0.85;;;8.40;99.90;;;6.74;100.00;99964.06;4984232;28;20053;-75
2023/01/12 04:24:26;;;;;;;2.45;0.90;;;8.20;99.90;;;6.58;100.00;99959.88;4995933;28;20038;-75
2023/01/12 04:26:52;;;;;;;1.95;0.80;;;8.10;99.90;;;6.50;100.00;99941.13;4995257;28;20414;-75
2023/01/12 04:29:17;;;;;;;3.92;0.85;;;8.10;99.90;;;6.51;100.00;99938.22;4996227;28;20052;-76
2023/01/12 04:31:43;;;;;;;4.00;0.90;;;8.00;99.90;;;6.45;100.00;99936.31;4996114;28;20035;-75
2023/01/12 04:34:09;;;;;;;2.75;0.90;;;8.00;99.90;;;6.37;100.00;99926.53;4995758;28;20042;-75
2023/01/12 04:36:35;;;;;;;3.65;0.90;;;8.00;99.90;;;6.33;100.00;99938.81;5011100;28;20033;-75
2023/01/12 04:39:00;;;;;;;1.33;0.70;;;7.90;99.90;;;6.27;100.00;99935.06;4995350;28;20042;-75
2023/01/12 04:41:26;;;;;;;4.65;1.13;;;7.80;99.90;;;6.26;100.00;99927.13;5016065;28;20026;-75
2023/01/12 04:43:52;;;;;;;6.75;1.10;;;7.80;99.90;;;6.21;100.00;99925.03;4995389;28;20054;-76
2023/01/12 04:46:17;;;;;;;2.72;0.90;;;7.80;99.90;;;6.23;100.00;99914.00;4995974;28;20038;-75
2023/01/12 04:48:44;;;;;;;3.22;0.70;;;7.80;99.90;;;6.21;100.00;99924.22;5003166;28;20515;-76
2023/01/12 04:51:10;;;;;;;5.60;1.27;;;7.70;99.90;;;6.15;100.00;99918.56;4995331;28;20113;-75
2023/01/12 04:53:35;;;;;;;4.45;0.90;;;7.70;99.90;;;6.16;100.00;99905.84;4993087;28;20130;-75
2023/01/12 04:56:06;;;;;;;4.13;1.63;;;7.70;99.90;;;6.12;100.00;99897.31;4995025;28;20976;-74
2023/01/12 04:58:32;;;;;;;4.22;0.93;;;7.70;99.90;;;6.15;100.00;99912.31;4993444;28;20095;-75
2023/01/12 05:01:07;;;;;;;1.58;0.70;;;7.70;99.90;;;6.21;100.00;99895.22;5010444;28;20038;-75
2023/01/12 05:03:33;;;;;;;2.33;0.80;;;7.70;99.90;;;6.12;100.00;99885.66;4994982;28;20436;-74
2023/01/12 05:06:01;;;;;;;4.35;1.00;;;7.80;99.90;;;6.12;100.00;99894.63;4994820;28;20038;-75
2023/01/12 05:11:11;;;;;;;5.20;1.38;;;7.70;99.90;;;6.16;100.00;99885.03;5003668;28;19925;-76
2023/01/12 05:13:37;;;;;;;3.38;0.77;;;7.70;99.90;;;6.10;100.00;99875.03;5020424;28;20132;-75
2023/01/12 05:16:17;;;;;;;4.53;0.85;;;7.70;99.90;;;6.08;100.00;99877.09;5011470;28;20508;-75
2023/01/12 05:18:44;;;;;;;3.03;0.65;;;7.70;99.90;;;6.07;100.00;99875.41;5008497;28;20053;-75
2023/01/12 05:21:11;;;;;;;2.72;0.60;;;7.60;99.90;;;6.07;100.00;99863.78;5026146;28;20050;-75
2023/01/12 05:23:37;;;;;;;3.88;0.85;;;7.70;99.90;;;6.04;100.00;99862.28;5013002;28;20117;-75
2023/01/12 05:26:04;;;;;;;4.25;1.10;;;7.60;99.90;;;6.03;100.00;99858.78;5023129;28;20132;-75
2023/01/12 05:28:31;;;;;;;1.83;0.60;;;7.60;99.90;;;6.08;100.00;99851.91;5005563;28;20057;-75
2023/01/12 05:31:10;;;;;;;2.67;0.87;;;7.60;99.90;;;6.04;100.00;99857.72;5000041;28;20092;-76
2023/01/12 05:33:38;;;;;;;6.65;0.98;;;7.60;99.90;;;6.08;100.00;99860.84;4994152;28;20038;-75
2023/01/12 05:36:14;;;;;;;2.42;0.75;;;7.70;99.90;;;6.10;100.00;99850.66;4993576;28;20065;-76
2023/01/12 05:38:40;;;;;;;3.33;0.93;;;7.70;99.90;;;6.08;100.00;99836.47;4999463;28;20037;-75
2023/01/12 05:41:09;;;;;;;2.97;0.82;;;7.70;99.90;;;6.11;100.00;99838.78;5001150;28;20038;-75
2023/01/12 05:43:50;;;;;;;5.88;1.45;;;7.70;99.90;;;6.09;100.00;99838.13;4994084;28;20108;-74
2023/01/12 05:46:23;;;;;;;4.75;1.10;;;7.70;99.90;;;6.13;100.00;99828.56;4998387;28;20061;-75
2023/01/12 05:48:51;;;;;;;3.50;1.30;;;7.70;99.90;;;6.04;100.00;99814.41;4993511;28;20124;-74
2023/01/12 05:51:18;;;;;;;5.00;0.90;;;7.70;99.90;;;6.09;100.00;99819.16;4993764;28;20034;-75
2023/01/12 05:53:44;;;;;;;6.07;0.87;;;7.70;99.90;;;6.09;100.00;99800.22;4994542;28;20049;-75
2023/01/12 05:56:21;;;;;;;5.78;0.88;;;7.70;99.90;;;6.12;100.00;99818.78;4987392;28;20034;-75
2023/01/12 05:58:53;;;;;;;2.35;0.47;;;7.70;99.90;;;6.13;100.00;99795.22;4993679;28;20035;-75
2023/01/12 06:01:20;;;;;;;1.98;0.70;;;7.70;99.90;;;6.11;100.00;99803.56;5007723;28;20092;-75
2023/01/12 06:03:51;;;;;;;2.60;0.60;;;7.70;99.90;;;6.13;100.00;99811.47;4993543;28;20066;-75
2023/01/12 06:06:19;;;;;;;3.22;0.60;;;7.70;99.90;;;6.11;100.00;99808.16;4993514;28;20037;-76
2023/01/12 06:08:46;;;;;;;1.50;0.50;;;7.70;99.90;;;6.09;100.00;99797.50;5005318;28;20026;-75
2023/01/12 06:13:57;;;;;;;2.38;0.65;;;7.70;99.90;;;6.17;100.00;99804.59;4993319;28;20167;-75
2023/01/12 06:16:24;;;;;;;3.85;0.80;;;7.70;99.90;;;6.14;100.00;99802.31;4993643;28;20046;-75
2023/01/12 06:18:50;;;;;;;3.17;0.80;;;7.80;99.90;;;6.11;100.00;99787.34;4999144;28;20113;-75
2023/01/12 06:21:16;;;;;;;1.95;0.60;;;7.80;99.90;;;6.11;100.00;99792.75;4997744;28;20442;-76
2023/01/12 06:23:42;;;;;;;4.00;1.05;;;7.70;99.90;;;6.05;100.00;99771.88;4993332;28;20036;-74
2023/01/12 06:26:08;;;;;;;5.60;0.70;;;7.70;99.90;;;6.10;100.00;99777.53;4997688;28;20034;-75
2023/01/12 06:28:36;;;;;;;4.35;0.70;;;7.70;99.90;;;6.10;100.00;99784.81;5003891;28;20475;-74
2023/01/12 06:31:05;;;;;;;2.35;0.73;;;7.70;99.90;;;6.11;100.00;99762.97;4993140;28;20112;-76
2023/01/12 06:33:32;;;;;;;0.77;0.30;;;7.70;99.90;;;6.19;100.00;99761.88;4991991;28;20045;-75
2023/01/12 06:35:58;;;;;;;2.88;1.05;;;7.80;99.90;;;6.16;100.00;99763.16;4997367;28;20030;-75
2023/01/12 06:38:27;;;;;;;2.88;0.70;;;7.80;99.90;;;6.16;100.00;99757.75;4993148;28;20113;-76
2023/01/12 06:40:56;;;;;;;2.65;0.73;;;7.70;99.90;;;6.21;100.00;99759.78;4998568;28;20092;-76
2023/01/12 06:43:22;;;;;;;3.65;0.50;;;7.80;99.90;;;6.23;100.00;99757.72;5007160;28;20053;-76
2023/01/12 06:45:51;;;;;;;3.55;1.10;;;7.80;99.90;;;6.21;100.00;99750.84;4992819;28;20047;-76
2023/01/12 06:48:21;;;;;;;1.85;0.55;;;7.80;99.90;;;6.22;100.00;99760.66;4993209;28;20042;-76
2023/01/12 06:50:46;;;;;;;2.28;0.55;;;7.80;99.90;;;6.26;100.00;99745.63;4990673;28;20096;-76
2023/01/12 06:53:12;;;;;;;1.75;0.80;;;7.80;99.90;;;6.24;100.00;99766.69;4984245;28;20474;-78
2023/01/12 06:55:38;;;;;;;1.40;0.47;;;7.80;99.90;;;6.26;100.00;99745.63;5006539;28;20462;-76
2023/01/12 06:58:03;;;;;;;1.67;0.40;;;7.80;99.90;;;6.22;100.00;99749.81;5000942;28;20088;-75
2023/01/12 07:00:31;;;;;;;2.33;0.60;;;7.80;99.90;;;6.23;100.00;99729.81;4992829;28;20366;-76
2023/01/12 07:02:57;;;;;;;6.82;1.42;;;7.80;99.90;;;6.18;100.00;99755.66;4995168;28;20109;-76
2023/01/12 07:05:23;;;;;;;3.50;0.82;;;7.80;99.90;;;6.21;100.00;99726.47;5017869;28;20030;-76
2023/01/12 07:07:48;;;;;;;2.33;0.55;;;7.80;99.90;;;6.18;100.00;99731.28;5006760;28;20472;-76
2023/01/12 07:10:15;;;;;;;1.25;0.70;;;7.80;99.90;;;6.14;100.00;99718.34;5006295;28;20354;-76
2023/01/12 07:12:40;;;;;;;3.90;1.10;;;7.80;99.90;;;6.18;100.00;99717.72;5006158;28;20034;-75
2023/01/12 07:15:07;;;;;;;2.28;0.50;;;7.80;99.90;;;6.22;100.00;99703.75;5009879;28;20041;-75
2023/01/12 07:17:33;;;;;;;2.28;0.63;;;7.80;99.90;;;6.11;100.00;99700.66;5007355;28;20042;-75
2023/01/12 07:19:58;;;;;;;2.63;0.70;;;7.80;99.90;;;6.26;100.00;99702.28;5007175;28;20499;-75
2023/01/12 07:22:25;;;;;;;2.55;0.70;;;7.80;99.90;;;6.24;100.00;99726.91;5006785;28;20044;-75
2023/01/12 07:24:51;;;;;;;2.55;0.50;;;7.80;99.90;;;6.27;100.00;99703.97;5022710;28;20029;-75
2023/01/12 07:27:17;;;;;;;1.95;0.60;;;7.80;99.90;;;6.28;100.00;99698.34;5006553;28;20038;-75
2023/01/12 07:29:42;;;;;;;4.68;0.63;;;7.90;99.90;;;6.32;100.00;99698.72;5005618;28;20111;-75
2023/01/12 07:32:08;;;;;;;2.53;0.50;;;7.90;99.90;;;6.33;100.00;99695.81;5007880;28;20505;-75
2023/01/12 07:34:34;;;;;;;2.60;0.50;;;7.90;99.90;;;6.35;100.00;99676.63;4996329;28;20050;-76
2023/01/12 07:36:59;;;;;;;2.65;0.60;;;8.00;99.90;;;6.37;100.00;99671.84;4997805;28;20045;-75
2023/01/12 07:39:25;;;;;;;2.65;0.40;;;7.90;99.90;;;6.35;100.00;99679.34;4995675;28;20043;-75
2023/01/12 07:44:35;;;;;;;2.42;0.82;;;8.00;99.90;;;6.32;100.00;99658.09;5011446;28;20101;-77
2023/01/12 07:47:01;;;;;;;2.83;0.50;;;8.00;99.90;;;6.35;100.00;99673.09;4996185;28;20142;-75
2023/01/12 07:49:27;;;;;;;3.58;0.90;;;7.90;99.90;;;6.32;100.00;99669.78;4995650;28;20573;-76
2023/01/12 07:51:54;;;;;;;2.60;0.50;;;7.90;99.90;;;6.35;100.00;99644.13;5001193;28;20040;-76
2023/01/12 07:54:21;;;;;;;1.70;0.50;;;7.90;99.90;;;6.30;100.00;99655.63;5022365;28;20041;-76
2023/01/12 07:56:47;;;;;;;2.92;0.68;;;7.90;99.90;;;6.29;100.00;99635.00;5008082;28;20074;-77
2023/01/12 07:59:13;;;;;;;3.17;0.60;;;7.90;99.90;;;6.23;100.00;99637.72;5013890;28;20046;-76
2023/01/12 08:01:39;;;;;;;1.35;0.30;;;7.80;99.90;;;6.19;100.00;99627.31;5009572;28;20044;-75
2023/01/12 08:04:06;;;;;;;3.97;0.63;;;7.80;99.90;;;6.19;100.00;99629.16;4996738;28;20482;-75
2023/01/12 08:06:34;;;;;;;1.05;0.30;;;7.80;99.90;;;6.21;100.00;99629.78;5006726;28;20049;-76
2023/01/12 08:08:59;;;;;;;1.20;0.40;;;7.80;99.90;;;6.22;100.00;99646.88;5005234;28;20398;-76
2023/01/12 08:11:25;;;;;;;2.10;0.70;;;7.80;99.90;;;6.17;100.00;99653.78;5008563;28;20045;-76
2023/01/12 08:13:56;;;;;;;2.95;0.50;;;7.80;99.90;;;6.18;100.00;99633.78;4996701;28;20030;-78
2023/01/12 08:16:38;;;;;;;0.75;0.40;;;7.80;99.90;;;6.17;100.00;99613.16;4995323;28;20038;-77
2023/01/12 08:19:20;;;;;;;3.13;0.80;;;7.80;99.90;;;6.15;100.00;99599.00;4994719;28;20451;-76
2023/01/12 08:21:58;;;;;;;2.65;0.70;;;7.80;99.90;;;6.30;100.00;99643.94;5011238;28;20038;-77
2023/01/12 08:24:34;;;;;;;1.77;0.35;;;7.80;99.90;;;6.24;100.00;99604.16;5014040;28;20120;-75
2023/01/12 08:27:06;;;;;;;3.70;0.60;;;7.80;99.90;;;6.22;100.00;99619.81;5014098;28;20121;-75
2023/01/12 08:29:52;;;;;;;2.80;0.65;;;7.80;99.90;;;6.22;100.00;99636.88;5011569;28;20503;-76
2023/01/12 08:32:18;;;;;;;1.52;0.43;;;7.80;99.90;;;6.27;100.00;99638.94;5011997;28;20098;-75
2023/01/12 08:34:50;;;;;;;3.33;0.73;;;7.90;99.90;;;6.20;100.00;99622.72;5003089;28;20405;-77
2023/01/12 08:37:21;;;;;;;1.92;0.45;;;7.80;99.90;;;6.11;100.00;99611.31;5007877;28;20053;-76
2023/01/12 08:39:48;;;;;;;3.63;0.55;;;7.80;99.90;;;6.13;100.00;99609.22;5011833;28;20038;-75
2023/01/12 08:42:13;;;;;;;3.13;1.05;;;7.70;99.90;;;6.17;100.00;99613.16;5002677;28;20038;-75
2023/01/12 08:44:39;;;;;;;2.22;0.68;;;7.70;99.90;;;6.28;100.00;99624.34;5013982;28;20050;-77
2023/01/12 08:47:26;;;;;;;2.85;0.50;;;7.80;99.90;;;6.29;100.00;99604.34;5001823;28;20030;-75
2023/01/12 08:49:53;;;;;;;3.03;0.50;;;7.80;99.90;;;6.31;100.00;99584.13;5018867;28;20045;-76
2023/01/12 08:52:19;;;;;;;2.65;0.40;;;7.90;99.90;;;6.44;100.00;99640.16;5010854;28;20101;-76
2023/01/12 08:54:45;;;;;;;1.55;0.40;;;8.00;99.90;;;6.49;100.00;99625.94;5008780;28;20119;-77
2023/01/12 08:57:11;;;;;;;1.17;0.20;;;8.00;99.90;;;6.50;100.00;99599.69;4996846;28;20034;-76
2023/01/12 08:59:37;;;;;;;2.60;0.52;;;8.10;99.90;;;6.53;100.00;99561.31;5007319;28;20048;-76
2023/01/12 09:02:04;;;;;;;1.98;0.60;;;8.20;99.90;;;6.54;100.00;99584.66;4999024;28;20057;-76
2023/01/12 09:04:29;;;;;;;2.22;0.57;;;8.10;99.90;;;6.66;100.00;99596.47;5002800;28;20038;-76
2023/01/12 09:06:55;;;;;;;2.05;0.40;;;8.20;99.90;;;6.60;100.00;99600.03;5000945;28;20548;-76
2023/01/12 09:09:21;;;;;;;3.53;0.32;;;8.20;99.90;;;6.71;100.00;99617.50;4994845;28;20061;-75
2023/01/12 09:11:49;;;;;;;2.15;0.40;;;8.30;99.90;;;6.70;100.00;99581.44;4994687;28;20034;-74
2023/01/12 09:14:16;;;;;;;2.65;0.30;;;8.30;99.90;;;6.74;100.00;99617.06;4994774;28;20038;-74
2023/01/12 09:16:42;;;;;;;2.22;0.50;;;8.30;99.90;;;6.80;100.00;99609.94;4994502;28;20109;-73
2023/01/12 09:19:09;;;;;;;5.07;0.40;;;8.40;99.90;;;6.88;100.00;99599.69;4999157;28;20089;-73
2023/01/12 09:21:40;;;;;;;2.53;1.13;;;8.40;99.90;;;6.93;100.00;99599.03;4993776;28;20035;-73
2023/01/12 09:24:07;;;;;;;2.42;0.40;;;8.50;99.90;;;6.97;100.00;99594.84;5005535;28;20038;-73
2023/01/12 09:26:44;;;;;;;2.30;0.35;;;8.50;99.90;;;7.02;100.00;99624.00;4994408;28;20159;-73
2023/01/12 09:29:12;;;;;;;1.80;0.30;;;8.60;99.90;;;7.14;100.00;99597.00;5008887;28;20482;-73
2023/01/12 09:31:41;;;;;;;2.08;0.22;;;8.70;99.90;;;7.14;100.00;99610.56;4995341;28;20034;-73
2023/01/12 09:34:07;;;;;;;1.60;0.60;;;8.70;99.90;;;7.16;100.00;99608.44;5008464;28;20049;-73
2023/01/12 09:36:36;;;;;;;1.90;0.35;;;8.70;99.90;;;7.20;100.00;99588.81;5008112;28;20046;-74
2023/01/12 09:39:04;;;;;;;1.45;0.40;;;8.80;99.90;;;7.31;100.00;99598.13;5003588;28;21812;-74
2023/01/12 09:47:51;;;;;;;1.23;0.40;;;8.90;99.90;;;7.37;100.00;99636.28;4983348;28;20091;-74
2023/01/12 09:50:19;;;;;;;0.10;0.10;;;8.90;99.90;;;7.34;100.00;99610.44;4994173;28;20125;-75
2023/01/12 09:52:58;;;;;;;0.28;0.10;;;8.90;99.90;;;7.35;100.00;99598.53;4994197;28;20049;-74
2023/01/12 09:55:32;;;;;;;0.70;0.20;;;8.90;99.90;;;7.28;100.00;99619.44;5005972;28;20030;-74
2023/01/12 09:58:34;;;;;;;0.55;0.30;;;8.80;99.90;;;7.39;100.00;99624.16;5003201;28;20038;-74
2023/01/12 10:01:08;;;;;;;2.65;0.10;;;8.90;99.90;;;7.44;100.00;99615.38;4993620;28;20142;-75
2023/01/12 10:03:37;;;;;;;1.67;0.57;;;9.00;99.90;;;7.46;100.00;99616.78;4997392;28;20044;-74
2023/01/12 10:06:13;;;;;;;2.58;0.35;;;9.00;99.90;;;7.46;100.00;99613.25;4993615;28;20486;-74
2023/01/12 10:08:48;;;;;;;1.35;0.15;;;9.00;99.90;;;7.44;100.00;99616.19;4993517;28;20026;-75
2023/01/12 10:11:36;;;;;;;0.35;0.20;;;9.00;99.90;;;7.34;100.00;99616.69;5008343;28;20553;-74
2023/01/12 10:14:15;;;;;;;0.85;0.20;;;8.90;99.90;;;7.32;100.00;99618.78;4993850;28;20034;-73
2023/01/12 10:17:11;;;;;;;2.20;0.32;;;8.90;99.90;;;7.24;100.00;99634.50;4993340;28;20508;-73
2023/01/12 10:20:28;;;;;;;2.20;0.30;;;8.80;99.90;;;7.24;100.00;99619.06;4993949;28;20394;-73
2023/01/12 10:23:08;;;;;;;1.35;0.43;;;8.80;99.90;;;7.17;100.00;99643.50;4997577;28;20418;-73
2023/01/12 10:25:43;;;;;;;1.25;0.13;;;8.70;99.90;;;7.10;100.00;99615.59;5008566;28;20041;-73
2023/01/12 10:28:32;;;;;;;1.08;0.40;;;8.70;99.90;;;7.08;100.00;99619.59;5008117;28;20420;-73
2023/01/12 10:30:59;;;;;;;1.40;0.20;;;8.60;99.90;;;7.05;100.00;99612.72;4992966;28;20035;-74
2023/01/12 10:33:31;;;;;;;0.98;0.20;;;8.60;99.90;;;7.06;100.00;99608.97;4993546;28;20038;-74
2023/01/12 10:36:18;;;;;;;0.50;0.30;;;8.60;99.90;;;7.11;100.00;99628.13;5007416;28;20050;-74
2023/01/12 10:39:03;;;;;;;0.20;0.10;;;8.60;99.90;;;7.16;100.00;99633.72;4993696;28;20042;-74
2023/01/12 10:41:32;;;;;;;0.70;0.10;;;8.70;99.90;;;7.24;100.00;99638.06;4993803;28;20054;-73
2023/01/12 10:43:57;;;;;;;0.47;0.20;;;8.70;99.90;;;7.26;100.00;99618.81;4997087;28;20045;-74
2023/01/12 10:46:26;;;;;;;0.20;0.10;;;8.80;99.90;;;7.34;100.00;99630.25;4993924;28;20083;-74
2023/01/12 10:49:13;;;;;;;0.88;0.17;;;8.90;99.90;;;7.47;100.00;99615.72;4992854;28;20030;-74
2023/01/12 10:51:56;;;;;;;1.48;0.43;;;9.00;99.90;;;7.61;100.00;99611.03;4992823;28;20450;-74
2023/01/12 10:54:36;;;;;;;1.65;0.10;;;9.10;99.90;;;7.64;100.00;99631.47;4993124;28;20607;-73
2023/01/12 10:57:23;;;;;;;0.50;0.20;;;9.20;99.90;;;7.69;100.00;99625.34;4993547;28;20046;-73
2023/01/12 11:00:01;;;;;;;0.17;0.10;;;9.20;99.90;;;7.68;100.00;99594.69;4995350;28;20053;-74
2023/01/12 11:02:43;;;;;;;0.45;0.20;;;9.30;99.90;;;7.75;100.00;99624.50;4999738;28;20482;-73
2023/01/12 11:05:37;;;;;;;0.45;0.10;;;9.30;99.90;;;7.77;100.00;99636.78;4992639;28;20091;-73
2023/01/12 11:08:27;;;;;;;1.27;0.20;;;9.40;99.90;;;7.82;100.00;99611.66;5002959;28;20069;-73
2023/01/12 11:10:52;;;;;;;0.65;0.20;;;9.40;99.90;;;7.89;100.00;99617.84;5003617;28;20052;-74
2023/01/12 11:13:36;;;;;;;0.35;0.10;;;9.40;99.90;;;7.93;100.00;99623.69;4997274;28;20029;-73
2023/01/12 11:16:21;;;;;;;0.20;0.10;;;9.50;99.90;;;7.98;100.00;99618.41;4997444;28;20046;-73
2023/01/12 11:19:16;;;;;;;0.38;0.25;;;9.50;99.90;;;8.11;100.00;99631.00;4997524;28;20038;-74
2023/01/12 11:21:54;;;;;;;1.75;0.30;;;9.60;99.90;;;8.09;100.00;99615.97;4997817;28;20042;-73